TimePST,TemperatureF,Dew PointF,Humidity,Sea Level PressureIn,VisibilityMPH,Wind Direction,Wind SpeedMPH,Gust SpeedMPH,PrecipitationIn,Events,Conditions,WindDirDegrees,DateUTC
12:53 AM,37.0,30.0,76,30.19,10.0,ESE,5.8,-,N/A,,Mostly Cloudy,110,2013-03-09 08:53:00
1:53 AM,36.0,30.0,79,30.21,10.0,ESE,3.5,-,N/A,,Mostly Cloudy,120,2013-03-09 09:53:00
2:53 AM,37.9,30.9,76,30.22,10.0,ESE,4.6,-,N/A,,Overcast,110,2013-03-09 10:53:00
3:53 AM,36.0,30.0,79,30.24,10.0,ESE,4.6,-,N/A,,Partly Cloudy,110,2013-03-09 11:53:00
4:53 AM,37.0,30.0,76,30.26,10.0,ESE,5.8,-,N/A,,Clear,120,2013-03-09 12:53:00
5:53 AM,34.0,28.0,79,30.27,10.0,SE,3.5,-,N/A,,Clear,140,2013-03-09 13:53:00
6:53 AM,34.0,28.0,79,30.30,10.0,Calm,Calm,-,N/A,,Clear,0,2013-03-09 14:53:00
7:53 AM,42.1,32.0,67,30.33,10.0,Calm,Calm,-,N/A,,Clear,0,2013-03-09 15:53:00
8:53 AM,45.0,33.1,63,30.34,10.0,SSW,5.8,-,N/A,,Clear,200,2013-03-09 16:53:00
9:53 AM,48.0,32.0,54,30.36,10.0,SW,5.8,-,N/A,,Clear,220,2013-03-09 17:53:00
10:53 AM,50.0,30.9,48,30.37,10.0,West,5.8,-,N/A,,Clear,270,2013-03-09 18:53:00
11:53 AM,52.0,33.1,49,30.38,10.0,West,8.1,-,N/A,,Clear,270,2013-03-09 19:53:00
12:53 PM,54.0,33.1,45,30.38,10.0,WSW,6.9,-,N/A,,Clear,240,2013-03-09 20:53:00
1:53 PM,54.0,32.0,43,30.37,10.0,SSW,5.8,-,N/A,,Clear,200,2013-03-09 21:53:00
2:53 PM,55.9,30.0,37,30.37,10.0,West,6.9,-,N/A,,Clear,260,2013-03-09 22:53:00
3:53 PM,55.9,27.0,33,30.37,10.0,SW,6.9,-,N/A,,Clear,230,2013-03-09 23:53:00
4:53 PM,55.0,28.0,35,30.38,10.0,West,5.8,-,N/A,,Clear,260,2013-03-10 00:53:00
5:53 PM,52.0,30.9,45,30.39,10.0,Calm,Calm,-,N/A,,Clear,0,2013-03-10 01:53:00
6:53 PM,44.1,30.9,60,30.40,10.0,ESE,8.1,-,N/A,,Clear,110,2013-03-10 02:53:00
7:53 PM,43.0,28.9,58,30.41,10.0,ESE,6.9,-,N/A,,Clear,120,2013-03-10 03:53:00
8:53 PM,41.0,28.0,60,30.42,10.0,East,8.1,-,N/A,,Clear,100,2013-03-10 04:53:00
9:53 PM,42.1,26.1,53,30.42,10.0,ESE,9.2,-,N/A,,Clear,110,2013-03-10 05:53:00
10:53 PM,42.1,24.1,49,30.43,10.0,ESE,8.1,-,N/A,,Clear,110,2013-03-10 06:53:00
11:53 PM,39.9,26.1,58,30.43,10.0,South,8.1,-,N/A,,Clear,190,2013-03-10 07:53:00